sensor_id;sensor_type;location;lat;lon;timestamp;P1;durP1;ratioP1;P2;durP2;ratioP2
142;SDS011;63667;49.046;8.468;2023-12-28T00:01:46;44.90;;;20.70;;
142;SDS011;63667;49.046;8.468;2023-12-28T00:04:12;43.37;;;19.80;;
142;SDS011;63667;49.046;8.468;2023-12-28T00:06:39;45.10;;;20.73;;
142;SDS011;63667;49.046;8.468;2023-12-28T00:09:05;47.93;;;20.93;;
142;SDS011;63667;49.046;8.468;2023-12-28T00:11:32;44.60;;;21.20;;
142;SDS011;63667;49.046;8.468;2023-12-28T00:13:58;40.63;;;21.10;;
142;SDS011;63667;49.046;8.468;2023-12-28T00:16:25;43.90;;;21.17;;
142;SDS011;63667;49.046;8.468;2023-12-28T00:18:51;46.10;;;20.50;;
142;SDS011;63667;49.046;8.468;2023-12-28T00:21:17;51.07;;;21.63;;
142;SDS011;63667;49.046;8.468;2023-12-28T00:23:44;45.53;;;20.53;;
142;SDS011;63667;49.046;8.468;2023-12-28T00:26:10;49.27;;;21.73;;
142;SDS011;63667;49.046;8.468;2023-12-28T00:28:37;44.70;;;19.53;;
142;SDS011;63667;49.046;8.468;2023-12-28T00:31:03;43.50;;;20.13;;
142;SDS011;63667;49.046;8.468;2023-12-28T00:33:30;41.93;;;20.47;;
142;SDS011;63667;49.046;8.468;2023-12-28T00:35:56;47.63;;;21.57;;
142;SDS011;63667;49.046;8.468;2023-12-28T00:38:22;47.70;;;21.13;;
142;SDS011;63667;49.046;8.468;2023-12-28T00:40:49;44.37;;;20.87;;
142;SDS011;63667;49.046;8.468;2023-12-28T00:43:15;56.67;;;24.40;;
142;SDS011;63667;49.046;8.468;2023-12-28T00:45:41;45.17;;;20.57;;
142;SDS011;63667;49.046;8.468;2023-12-28T00:48:08;43.60;;;20.50;;
142;SDS011;63667;49.046;8.468;2023-12-28T00:50:34;44.40;;;21.10;;
142;SDS011;63667;49.046;8.468;2023-12-28T00:53:01;50.60;;;23.10;;
142;SDS011;63667;49.046;8.468;2023-12-28T00:55:27;71.70;;;24.47;;
142;SDS011;63667;49.046;8.468;2023-12-28T00:57:53;67.70;;;28.77;;
142;SDS011;63667;49.046;8.468;2023-12-28T01:00:20;74.03;;;28.80;;
142;SDS011;63667;49.046;8.468;2023-12-28T01:02:46;70.70;;;27.70;;
142;SDS011;63667;49.046;8.468;2023-12-28T01:05:13;55.60;;;23.57;;
142;SDS011;63667;49.046;8.468;2023-12-28T01:07:39;49.30;;;23.77;;
142;SDS011;63667;49.046;8.468;2023-12-28T01:10:06;70.73;;;30.73;;
142;SDS011;63667;49.046;8.468;2023-12-28T01:12:33;61.13;;;27.83;;
142;SDS011;63667;49.046;8.468;2023-12-28T01:14:59;119.60;;;43.93;;
142;SDS011;63667;49.046;8.468;2023-12-28T01:17:25;74.10;;;33.40;;
142;SDS011;63667;49.046;8.468;2023-12-28T01:19:52;84.80;;;30.60;;
142;SDS011;63667;49.046;8.468;2023-12-28T01:22:18;52.90;;;23.40;;
142;SDS011;63667;49.046;8.468;2023-12-28T01:24:48;47.77;;;21.80;;
142;SDS011;63667;49.046;8.468;2023-12-28T01:27:15;55.83;;;26.63;;
142;SDS011;63667;49.046;8.468;2023-12-28T01:29:41;57.80;;;26.80;;
142;SDS011;63667;49.046;8.468;2023-12-28T01:32:07;53.63;;;25.53;;
142;SDS011;63667;49.046;8.468;2023-12-28T01:34:34;39.53;;;21.10;;
142;SDS011;63667;49.046;8.468;2023-12-28T01:37:00;55.27;;;25.37;;
142;SDS011;63667;49.046;8.468;2023-12-28T01:39:26;51.37;;;24.00;;
142;SDS011;63667;49.046;8.468;2023-12-28T01:41:53;42.97;;;21.30;;
142;SDS011;63667;49.046;8.468;2023-12-28T01:44:19;48.93;;;21.20;;
142;SDS011;63667;49.046;8.468;2023-12-28T01:46:46;36.70;;;19.40;;
142;SDS011;63667;49.046;8.468;2023-12-28T01:49:12;39.27;;;19.83;;
142;SDS011;63667;49.046;8.468;2023-12-28T01:51:39;33.60;;;18.00;;
142;SDS011;63667;49.046;8.468;2023-12-28T01:54:05;43.10;;;19.60;;
142;SDS011;63667;49.046;8.468;2023-12-28T01:56:32;43.50;;;18.50;;
142;SDS011;63667;49.046;8.468;2023-12-28T01:58:58;37.30;;;18.93;;
142;SDS011;63667;49.046;8.468;2023-12-28T02:01:25;39.37;;;18.00;;
142;SDS011;63667;49.046;8.468;2023-12-28T02:03:51;35.80;;;18.33;;
142;SDS011;63667;49.046;8.468;2023-12-28T02:06:18;44.50;;;18.53;;
142;SDS011;63667;49.046;8.468;2023-12-28T02:08:48;42.40;;;18.97;;
142;SDS011;63667;49.046;8.468;2023-12-28T02:11:15;34.50;;;17.30;;
142;SDS011;63667;49.046;8.468;2023-12-28T02:13:41;37.33;;;18.33;;
142;SDS011;63667;49.046;8.468;2023-12-28T02:16:15;37.47;;;17.57;;
142;SDS011;63667;49.046;8.468;2023-12-28T02:18:43;34.30;;;17.00;;
142;SDS011;63667;49.046;8.468;2023-12-28T02:21:10;38.40;;;16.27;;
142;SDS011;63667;49.046;8.468;2023-12-28T02:23:38;31.20;;;16.10;;
142;SDS011;63667;49.046;8.468;2023-12-28T02:26:04;36.37;;;16.90;;
142;SDS011;63667;49.046;8.468;2023-12-28T02:28:31;33.83;;;15.70;;
142;SDS011;63667;49.046;8.468;2023-12-28T02:30:58;31.23;;;16.37;;
142;SDS011;63667;49.046;8.468;2023-12-28T02:33:28;30.23;;;14.50;;
142;SDS011;63667;49.046;8.468;2023-12-28T02:35:57;28.20;;;14.70;;
142;SDS011;63667;49.046;8.468;2023-12-28T02:38:24;23.93;;;14.10;;
142;SDS011;63667;49.046;8.468;2023-12-28T02:40:50;31.13;;;15.00;;
142;SDS011;63667;49.046;8.468;2023-12-28T02:43:17;28.33;;;15.00;;
142;SDS011;63667;49.046;8.468;2023-12-28T02:45:43;35.23;;;15.27;;
142;SDS011;63667;49.046;8.468;2023-12-28T02:48:10;25.00;;;14.10;;
142;SDS011;63667;49.046;8.468;2023-12-28T02:50:36;27.17;;;14.10;;
142;SDS011;63667;49.046;8.468;2023-12-28T02:53:02;24.67;;;13.23;;
142;SDS011;63667;49.046;8.468;2023-12-28T02:55:29;30.10;;;14.40;;
142;SDS011;63667;49.046;8.468;2023-12-28T02:57:56;28.00;;;14.73;;
142;SDS011;63667;49.046;8.468;2023-12-28T03:00:25;31.07;;;14.57;;
142;SDS011;63667;49.046;8.468;2023-12-28T03:02:52;30.03;;;14.07;;
142;SDS011;63667;49.046;8.468;2023-12-28T03:05:18;26.00;;;12.80;;
142;SDS011;63667;49.046;8.468;2023-12-28T03:07:44;28.50;;;12.80;;
142;SDS011;63667;49.046;8.468;2023-12-28T03:10:11;24.80;;;12.70;;
142;SDS011;63667;49.046;8.468;2023-12-28T03:12:38;24.27;;;12.50;;
142;SDS011;63667;49.046;8.468;2023-12-28T03:15:04;24.63;;;12.40;;
142;SDS011;63667;49.046;8.468;2023-12-28T03:17:31;21.43;;;11.33;;
142;SDS011;63667;49.046;8.468;2023-12-28T03:19:58;26.53;;;12.47;;
142;SDS011;63667;49.046;8.468;2023-12-28T03:22:25;22.70;;;11.03;;
142;SDS011;63667;49.046;8.468;2023-12-28T03:24:51;21.10;;;11.33;;
142;SDS011;63667;49.046;8.468;2023-12-28T03:27:18;23.17;;;11.37;;
142;SDS011;63667;49.046;8.468;2023-12-28T03:29:44;24.60;;;12.17;;
142;SDS011;63667;49.046;8.468;2023-12-28T03:32:10;19.73;;;11.10;;
142;SDS011;63667;49.046;8.468;2023-12-28T03:34:37;19.33;;;10.70;;
142;SDS011;63667;49.046;8.468;2023-12-28T03:37:03;17.43;;;10.30;;
142;SDS011;63667;49.046;8.468;2023-12-28T03:39:30;17.47;;;9.87;;
142;SDS011;63667;49.046;8.468;2023-12-28T03:41:56;16.20;;;9.47;;
142;SDS011;63667;49.046;8.468;2023-12-28T03:44:22;19.10;;;10.70;;
142;SDS011;63667;49.046;8.468;2023-12-28T03:46:49;19.50;;;10.80;;
142;SDS011;63667;49.046;8.468;2023-12-28T03:49:16;22.53;;;11.10;;
142;SDS011;63667;49.046;8.468;2023-12-28T03:51:43;20.77;;;9.90;;
142;SDS011;63667;49.046;8.468;2023-12-28T03:54:09;15.60;;;9.10;;
142;SDS011;63667;49.046;8.468;2023-12-28T03:56:36;19.50;;;10.73;;
142;SDS011;63667;49.046;8.468;2023-12-28T03:59:05;21.13;;;9.93;;
142;SDS011;63667;49.046;8.468;2023-12-28T04:01:32;18.37;;;10.60;;
142;SDS011;63667;49.046;8.468;2023-12-28T04:03:59;19.20;;;10.30;;
142;SDS011;63667;49.046;8.468;2023-12-28T04:06:25;17.73;;;10.00;;
142;SDS011;63667;49.046;8.468;2023-12-28T04:08:52;18.47;;;10.80;;
142;SDS011;63667;49.046;8.468;2023-12-28T04:11:18;21.40;;;11.00;;
142;SDS011;63667;49.046;8.468;2023-12-28T04:13:44;19.80;;;10.63;;
142;SDS011;63667;49.046;8.468;2023-12-28T04:16:14;23.07;;;10.80;;
142;SDS011;63667;49.046;8.468;2023-12-28T04:18:41;18.87;;;10.30;;
142;SDS011;63667;49.046;8.468;2023-12-28T04:21:12;19.03;;;10.57;;
142;SDS011;63667;49.046;8.468;2023-12-28T04:23:39;16.73;;;9.80;;
142;SDS011;63667;49.046;8.468;2023-12-28T04:26:05;21.57;;;11.23;;
142;SDS011;63667;49.046;8.468;2023-12-28T04:28:32;15.00;;;10.00;;
142;SDS011;63667;49.046;8.468;2023-12-28T04:31:03;19.77;;;10.87;;
142;SDS011;63667;49.046;8.468;2023-12-28T04:33:30;18.70;;;10.90;;
142;SDS011;63667;49.046;8.468;2023-12-28T04:35:57;22.70;;;10.93;;
142;SDS011;63667;49.046;8.468;2023-12-28T04:38:23;21.40;;;10.40;;
142;SDS011;63667;49.046;8.468;2023-12-28T04:40:49;16.90;;;10.03;;
142;SDS011;63667;49.046;8.468;2023-12-28T04:43:16;21.90;;;9.63;;
142;SDS011;63667;49.046;8.468;2023-12-28T04:45:42;19.70;;;8.93;;
142;SDS011;63667;49.046;8.468;2023-12-28T04:48:09;15.70;;;9.40;;
142;SDS011;63667;49.046;8.468;2023-12-28T04:50:35;12.70;;;8.17;;
142;SDS011;63667;49.046;8.468;2023-12-28T04:53:01;16.27;;;9.63;;
142;SDS011;63667;49.046;8.468;2023-12-28T04:55:29;13.00;;;6.77;;
142;SDS011;63667;49.046;8.468;2023-12-28T04:57:55;13.03;;;6.73;;
142;SDS011;63667;49.046;8.468;2023-12-28T05:00:21;11.50;;;5.30;;
142;SDS011;63667;49.046;8.468;2023-12-28T05:02:48;9.23;;;6.00;;
142;SDS011;63667;49.046;8.468;2023-12-28T05:05:14;10.90;;;5.53;;
142;SDS011;63667;49.046;8.468;2023-12-28T05:07:41;6.87;;;4.20;;
142;SDS011;63667;49.046;8.468;2023-12-28T05:10:07;7.00;;;4.30;;
142;SDS011;63667;49.046;8.468;2023-12-28T05:12:34;7.53;;;4.70;;
142;SDS011;63667;49.046;8.468;2023-12-28T05:15:00;8.83;;;5.57;;
142;SDS011;63667;49.046;8.468;2023-12-28T05:17:27;8.73;;;5.90;;
142;SDS011;63667;49.046;8.468;2023-12-28T05:19:53;9.73;;;5.43;;
142;SDS011;63667;49.046;8.468;2023-12-28T05:22:21;8.73;;;5.70;;
142;SDS011;63667;49.046;8.468;2023-12-28T05:24:47;7.33;;;5.63;;
142;SDS011;63667;49.046;8.468;2023-12-28T05:27:14;10.37;;;5.70;;
142;SDS011;63667;49.046;8.468;2023-12-28T05:29:41;9.47;;;4.73;;
142;SDS011;63667;49.046;8.468;2023-12-28T05:32:07;9.07;;;4.93;;
142;SDS011;63667;49.046;8.468;2023-12-28T05:34:34;8.87;;;5.10;;
142;SDS011;63667;49.046;8.468;2023-12-28T05:37:00;8.47;;;4.97;;
142;SDS011;63667;49.046;8.468;2023-12-28T05:39:27;10.03;;;5.70;;
142;SDS011;63667;49.046;8.468;2023-12-28T05:41:53;7.97;;;5.40;;
142;SDS011;63667;49.046;8.468;2023-12-28T05:44:19;8.10;;;5.30;;
142;SDS011;63667;49.046;8.468;2023-12-28T05:46:46;13.87;;;5.30;;
142;SDS011;63667;49.046;8.468;2023-12-28T05:49:12;8.90;;;5.90;;
142;SDS011;63667;49.046;8.468;2023-12-28T05:51:40;9.70;;;5.70;;
142;SDS011;63667;49.046;8.468;2023-12-28T05:54:07;14.60;;;7.67;;
142;SDS011;63667;49.046;8.468;2023-12-28T05:56:34;10.33;;;6.23;;
142;SDS011;63667;49.046;8.468;2023-12-28T05:59:00;11.70;;;6.73;;
142;SDS011;63667;49.046;8.468;2023-12-28T06:01:27;8.83;;;6.03;;
142;SDS011;63667;49.046;8.468;2023-12-28T06:03:53;8.20;;;5.83;;
142;SDS011;63667;49.046;8.468;2023-12-28T06:06:20;7.47;;;5.30;;
142;SDS011;63667;49.046;8.468;2023-12-28T06:08:46;10.63;;;6.50;;
142;SDS011;63667;49.046;8.468;2023-12-28T06:11:12;11.23;;;6.73;;
142;SDS011;63667;49.046;8.468;2023-12-28T06:13:39;9.47;;;5.80;;
142;SDS011;63667;49.046;8.468;2023-12-28T06:16:05;9.27;;;5.17;;
142;SDS011;63667;49.046;8.468;2023-12-28T06:18:32;10.20;;;5.23;;
142;SDS011;63667;49.046;8.468;2023-12-28T06:20:58;8.50;;;5.67;;
142;SDS011;63667;49.046;8.468;2023-12-28T06:23:24;8.57;;;4.87;;
142;SDS011;63667;49.046;8.468;2023-12-28T06:25:52;7.27;;;5.03;;
142;SDS011;63667;49.046;8.468;2023-12-28T06:28:19;8.80;;;5.40;;
142;SDS011;63667;49.046;8.468;2023-12-28T06:30:46;10.37;;;5.73;;
142;SDS011;63667;49.046;8.468;2023-12-28T06:33:12;6.93;;;5.40;;
142;SDS011;63667;49.046;8.468;2023-12-28T06:35:39;14.80;;;6.00;;
142;SDS011;63667;49.046;8.468;2023-12-28T06:38:05;9.00;;;5.60;;
142;SDS011;63667;49.046;8.468;2023-12-28T06:40:32;9.47;;;6.27;;
142;SDS011;63667;49.046;8.468;2023-12-28T06:42:59;11.27;;;5.77;;
142;SDS011;63667;49.046;8.468;2023-12-28T06:45:25;9.40;;;5.67;;
142;SDS011;63667;49.046;8.468;2023-12-28T06:47:53;10.07;;;6.87;;
142;SDS011;63667;49.046;8.468;2023-12-28T06:50:19;10.30;;;6.60;;
142;SDS011;63667;49.046;8.468;2023-12-28T06:52:46;12.77;;;6.13;;
142;SDS011;63667;49.046;8.468;2023-12-28T06:55:12;13.57;;;6.53;;
142;SDS011;63667;49.046;8.468;2023-12-28T06:57:38;15.80;;;6.00;;
142;SDS011;63667;49.046;8.468;2023-12-28T07:00:05;15.73;;;6.03;;
142;SDS011;63667;49.046;8.468;2023-12-28T07:02:32;10.70;;;6.23;;
142;SDS011;63667;49.046;8.468;2023-12-28T07:04:58;11.77;;;6.80;;
142;SDS011;63667;49.046;8.468;2023-12-28T07:07:25;12.50;;;5.93;;
142;SDS011;63667;49.046;8.468;2023-12-28T07:09:51;13.40;;;6.50;;
142;SDS011;63667;49.046;8.468;2023-12-28T07:12:17;9.53;;;6.50;;
142;SDS011;63667;49.046;8.468;2023-12-28T07:14:45;9.63;;;6.00;;
142;SDS011;63667;49.046;8.468;2023-12-28T07:17:12;15.30;;;6.47;;
142;SDS011;63667;49.046;8.468;2023-12-28T07:19:42;11.10;;;6.67;;
142;SDS011;63667;49.046;8.468;2023-12-28T07:22:09;15.27;;;7.23;;
142;SDS011;63667;49.046;8.468;2023-12-28T07:24:35;18.80;;;7.83;;
142;SDS011;63667;49.046;8.468;2023-12-28T07:27:02;18.17;;;8.13;;
142;SDS011;63667;49.046;8.468;2023-12-28T07:29:28;16.37;;;7.13;;
142;SDS011;63667;49.046;8.468;2023-12-28T07:31:55;20.50;;;7.30;;
142;SDS011;63667;49.046;8.468;2023-12-28T07:34:21;17.40;;;7.10;;
142;SDS011;63667;49.046;8.468;2023-12-28T07:36:47;15.23;;;6.63;;
142;SDS011;63667;49.046;8.468;2023-12-28T07:39:14;16.70;;;6.80;;
142;SDS011;63667;49.046;8.468;2023-12-28T07:41:40;36.40;;;7.47;;
142;SDS011;63667;49.046;8.468;2023-12-28T07:44:07;9.03;;;6.20;;
142;SDS011;63667;49.046;8.468;2023-12-28T07:46:33;17.27;;;6.60;;
142;SDS011;63667;49.046;8.468;2023-12-28T07:48:59;15.63;;;6.97;;
142;SDS011;63667;49.046;8.468;2023-12-28T07:51:26;15.13;;;6.60;;
142;SDS011;63667;49.046;8.468;2023-12-28T07:53:52;33.73;;;7.97;;
142;SDS011;63667;49.046;8.468;2023-12-28T07:56:19;11.77;;;6.20;;
142;SDS011;63667;49.046;8.468;2023-12-28T07:58:45;15.10;;;7.37;;
142;SDS011;63667;49.046;8.468;2023-12-28T08:01:11;14.03;;;6.90;;
142;SDS011;63667;49.046;8.468;2023-12-28T08:03:38;15.90;;;6.87;;
142;SDS011;63667;49.046;8.468;2023-12-28T08:06:04;13.57;;;7.10;;
142;SDS011;63667;49.046;8.468;2023-12-28T08:08:31;14.03;;;6.37;;
142;SDS011;63667;49.046;8.468;2023-12-28T08:10:58;11.07;;;6.47;;
142;SDS011;63667;49.046;8.468;2023-12-28T08:13:24;10.40;;;6.27;;
142;SDS011;63667;49.046;8.468;2023-12-28T08:15:50;11.93;;;5.67;;
142;SDS011;63667;49.046;8.468;2023-12-28T08:18:17;9.70;;;6.10;;
142;SDS011;63667;49.046;8.468;2023-12-28T08:20:43;11.77;;;6.20;;
142;SDS011;63667;49.046;8.468;2023-12-28T08:23:10;11.00;;;5.60;;
142;SDS011;63667;49.046;8.468;2023-12-28T08:25:36;9.13;;;5.67;;
142;SDS011;63667;49.046;8.468;2023-12-28T08:28:03;7.87;;;5.27;;
142;SDS011;63667;49.046;8.468;2023-12-28T08:30:29;12.83;;;6.30;;
142;SDS011;63667;49.046;8.468;2023-12-28T08:32:55;10.77;;;6.27;;
142;SDS011;63667;49.046;8.468;2023-12-28T08:35:22;9.47;;;5.70;;
142;SDS011;63667;49.046;8.468;2023-12-28T08:37:48;9.30;;;5.63;;
142;SDS011;63667;49.046;8.468;2023-12-28T08:40:15;11.23;;;5.77;;
142;SDS011;63667;49.046;8.468;2023-12-28T08:42:41;13.40;;;6.33;;
142;SDS011;63667;49.046;8.468;2023-12-28T08:45:08;11.37;;;6.50;;
142;SDS011;63667;49.046;8.468;2023-12-28T08:47:34;12.83;;;5.60;;
142;SDS011;63667;49.046;8.468;2023-12-28T08:50:01;13.53;;;6.10;;
142;SDS011;63667;49.046;8.468;2023-12-28T08:52:27;12.43;;;6.40;;
142;SDS011;63667;49.046;8.468;2023-12-28T08:54:54;10.33;;;5.90;;
142;SDS011;63667;49.046;8.468;2023-12-28T08:57:20;10.60;;;6.20;;
142;SDS011;63667;49.046;8.468;2023-12-28T08:59:47;10.17;;;6.03;;
142;SDS011;63667;49.046;8.468;2023-12-28T09:02:13;12.47;;;6.20;;
142;SDS011;63667;49.046;8.468;2023-12-28T09:04:39;10.63;;;6.13;;
142;SDS011;63667;49.046;8.468;2023-12-28T09:07:06;8.50;;;5.40;;
142;SDS011;63667;49.046;8.468;2023-12-28T09:09:32;13.20;;;6.73;;
142;SDS011;63667;49.046;8.468;2023-12-28T09:11:58;11.53;;;6.80;;
142;SDS011;63667;49.046;8.468;2023-12-28T09:14:25;14.10;;;7.10;;
142;SDS011;63667;49.046;8.468;2023-12-28T09:16:51;15.13;;;6.60;;
142;SDS011;63667;49.046;8.468;2023-12-28T09:19:17;15.30;;;7.40;;
142;SDS011;63667;49.046;8.468;2023-12-28T09:21:44;10.60;;;5.87;;
142;SDS011;63667;49.046;8.468;2023-12-28T09:24:10;15.07;;;6.60;;
142;SDS011;63667;49.046;8.468;2023-12-28T09:26:37;11.97;;;6.90;;
142;SDS011;63667;49.046;8.468;2023-12-28T09:29:03;11.37;;;6.60;;
142;SDS011;63667;49.046;8.468;2023-12-28T09:31:30;9.70;;;5.93;;
142;SDS011;63667;49.046;8.468;2023-12-28T09:33:56;12.17;;;5.87;;
142;SDS011;63667;49.046;8.468;2023-12-28T09:36:22;11.60;;;6.30;;
142;SDS011;63667;49.046;8.468;2023-12-28T09:38:49;11.37;;;6.47;;
142;SDS011;63667;49.046;8.468;2023-12-28T09:41:16;12.43;;;5.70;;
142;SDS011;63667;49.046;8.468;2023-12-28T09:43:52;13.47;;;6.27;;
142;SDS011;63667;49.046;8.468;2023-12-28T09:46:20;10.83;;;6.93;;
142;SDS011;63667;49.046;8.468;2023-12-28T09:48:46;11.97;;;5.80;;
142;SDS011;63667;49.046;8.468;2023-12-28T09:51:13;11.77;;;6.40;;
142;SDS011;63667;49.046;8.468;2023-12-28T09:53:40;11.63;;;6.40;;
142;SDS011;63667;49.046;8.468;2023-12-28T09:56:06;14.33;;;5.73;;
142;SDS011;63667;49.046;8.468;2023-12-28T09:58:33;9.60;;;6.00;;
142;SDS011;63667;49.046;8.468;2023-12-28T10:01:01;12.70;;;5.90;;
142;SDS011;63667;49.046;8.468;2023-12-28T10:03:28;7.30;;;5.40;;
142;SDS011;63667;49.046;8.468;2023-12-28T10:05:55;8.40;;;5.30;;
142;SDS011;63667;49.046;8.468;2023-12-28T10:08:21;13.00;;;5.70;;
142;SDS011;63667;49.046;8.468;2023-12-28T10:10:48;10.17;;;5.80;;
142;SDS011;63667;49.046;8.468;2023-12-28T10:13:17;12.50;;;5.70;;
142;SDS011;63667;49.046;8.468;2023-12-28T10:15:44;13.57;;;5.63;;
142;SDS011;63667;49.046;8.468;2023-12-28T10:18:10;10.00;;;5.90;;
142;SDS011;63667;49.046;8.468;2023-12-28T10:20:37;11.23;;;5.87;;
142;SDS011;63667;49.046;8.468;2023-12-28T10:23:04;10.00;;;5.70;;
142;SDS011;63667;49.046;8.468;2023-12-28T10:25:31;12.43;;;6.40;;
142;SDS011;63667;49.046;8.468;2023-12-28T10:28:03;12.10;;;6.10;;
142;SDS011;63667;49.046;8.468;2023-12-28T10:30:29;10.10;;;6.87;;
142;SDS011;63667;49.046;8.468;2023-12-28T10:32:56;10.63;;;6.30;;
142;SDS011;63667;49.046;8.468;2023-12-28T10:35:22;13.20;;;6.90;;
142;SDS011;63667;49.046;8.468;2023-12-28T10:37:50;12.47;;;6.70;;
142;SDS011;63667;49.046;8.468;2023-12-28T10:40:18;9.63;;;5.90;;
142;SDS011;63667;49.046;8.468;2023-12-28T10:42:51;11.07;;;6.37;;
142;SDS011;63667;49.046;8.468;2023-12-28T10:45:18;15.30;;;6.57;;
142;SDS011;63667;49.046;8.468;2023-12-28T10:47:53;13.77;;;7.33;;
142;SDS011;63667;49.046;8.468;2023-12-28T10:50:21;9.83;;;6.50;;
142;SDS011;63667;49.046;8.468;2023-12-28T10:52:49;11.47;;;6.70;;
142;SDS011;63667;49.046;8.468;2023-12-28T10:57:54;12.93;;;6.67;;
142;SDS011;63667;49.046;8.468;2023-12-28T11:00:23;11.00;;;6.30;;
142;SDS011;63667;49.046;8.468;2023-12-28T11:02:53;10.70;;;7.00;;
142;SDS011;63667;49.046;8.468;2023-12-28T11:05:23;10.40;;;6.60;;
142;SDS011;63667;49.046;8.468;2023-12-28T11:07:49;10.90;;;6.30;;
142;SDS011;63667;49.046;8.468;2023-12-28T11:10:22;9.23;;;6.37;;
142;SDS011;63667;49.046;8.468;2023-12-28T11:12:53;13.57;;;6.07;;
142;SDS011;63667;49.046;8.468;2023-12-28T11:15:19;14.50;;;6.30;;
142;SDS011;63667;49.046;8.468;2023-12-28T11:17:46;11.10;;;5.93;;
142;SDS011;63667;49.046;8.468;2023-12-28T11:20:13;12.67;;;6.20;;
142;SDS011;63667;49.046;8.468;2023-12-28T11:22:39;10.43;;;6.60;;
142;SDS011;63667;49.046;8.468;2023-12-28T11:25:06;10.70;;;6.47;;
142;SDS011;63667;49.046;8.468;2023-12-28T11:27:34;12.50;;;6.53;;
142;SDS011;63667;49.046;8.468;2023-12-28T11:30:03;14.20;;;6.73;;
142;SDS011;63667;49.046;8.468;2023-12-28T11:32:33;11.90;;;6.13;;
142;SDS011;63667;49.046;8.468;2023-12-28T11:34:59;11.93;;;6.27;;
142;SDS011;63667;49.046;8.468;2023-12-28T11:37:26;8.07;;;6.00;;
142;SDS011;63667;49.046;8.468;2023-12-28T11:39:53;9.50;;;6.57;;
142;SDS011;63667;49.046;8.468;2023-12-28T11:42:22;11.20;;;6.53;;
142;SDS011;63667;49.046;8.468;2023-12-28T11:44:53;12.53;;;6.63;;
142;SDS011;63667;49.046;8.468;2023-12-28T11:47:25;10.73;;;6.70;;
142;SDS011;63667;49.046;8.468;2023-12-28T11:49:54;10.67;;;6.60;;
142;SDS011;63667;49.046;8.468;2023-12-28T11:52:25;22.27;;;7.30;;
142;SDS011;63667;49.046;8.468;2023-12-28T11:54:52;13.27;;;7.00;;
142;SDS011;63667;49.046;8.468;2023-12-28T11:57:18;13.13;;;7.40;;
142;SDS011;63667;49.046;8.468;2023-12-28T11:59:44;16.70;;;8.60;;
142;SDS011;63667;49.046;8.468;2023-12-28T12:02:12;15.00;;;7.73;;
142;SDS011;63667;49.046;8.468;2023-12-28T12:04:39;19.90;;;8.00;;
142;SDS011;63667;49.046;8.468;2023-12-28T12:07:06;15.73;;;8.03;;
142;SDS011;63667;49.046;8.468;2023-12-28T12:09:32;12.40;;;7.63;;
142;SDS011;63667;49.046;8.468;2023-12-28T12:12:03;17.17;;;8.23;;
142;SDS011;63667;49.046;8.468;2023-12-28T12:14:30;16.37;;;8.50;;
142;SDS011;63667;49.046;8.468;2023-12-28T12:16:56;18.57;;;8.83;;
142;SDS011;63667;49.046;8.468;2023-12-28T12:19:24;19.57;;;9.53;;
142;SDS011;63667;49.046;8.468;2023-12-28T12:21:53;22.87;;;10.80;;
142;SDS011;63667;49.046;8.468;2023-12-28T12:24:20;19.40;;;10.37;;
142;SDS011;63667;49.046;8.468;2023-12-28T12:26:47;16.40;;;10.63;;
142;SDS011;63667;49.046;8.468;2023-12-28T12:29:14;21.57;;;10.73;;
142;SDS011;63667;49.046;8.468;2023-12-28T12:31:41;24.23;;;10.73;;
142;SDS011;63667;49.046;8.468;2023-12-28T12:34:08;25.53;;;9.33;;
142;SDS011;63667;49.046;8.468;2023-12-28T12:36:35;22.07;;;8.50;;
142;SDS011;63667;49.046;8.468;2023-12-28T12:39:01;17.00;;;8.73;;
142;SDS011;63667;49.046;8.468;2023-12-28T12:41:34;15.30;;;8.03;;
142;SDS011;63667;49.046;8.468;2023-12-28T12:44:01;14.00;;;8.57;;
142;SDS011;63667;49.046;8.468;2023-12-28T12:46:27;22.10;;;9.07;;
142;SDS011;63667;49.046;8.468;2023-12-28T12:48:57;27.90;;;8.07;;
142;SDS011;63667;49.046;8.468;2023-12-28T12:51:27;18.13;;;8.53;;
142;SDS011;63667;49.046;8.468;2023-12-28T12:54:00;16.70;;;8.80;;
142;SDS011;63667;49.046;8.468;2023-12-28T12:56:28;16.80;;;8.23;;
142;SDS011;63667;49.046;8.468;2023-12-28T12:58:54;16.03;;;7.90;;
142;SDS011;63667;49.046;8.468;2023-12-28T13:01:21;14.20;;;7.93;;
142;SDS011;63667;49.046;8.468;2023-12-28T13:03:48;17.40;;;7.30;;
142;SDS011;63667;49.046;8.468;2023-12-28T13:06:14;12.50;;;7.57;;
142;SDS011;63667;49.046;8.468;2023-12-28T13:08:41;12.20;;;7.67;;
142;SDS011;63667;49.046;8.468;2023-12-28T13:11:07;14.40;;;8.17;;
142;SDS011;63667;49.046;8.468;2023-12-28T13:13:34;16.30;;;6.87;;
142;SDS011;63667;49.046;8.468;2023-12-28T13:16:03;22.43;;;7.93;;
142;SDS011;63667;49.046;8.468;2023-12-28T13:18:30;14.30;;;7.10;;
142;SDS011;63667;49.046;8.468;2023-12-28T13:20:57;12.00;;;6.80;;
142;SDS011;63667;49.046;8.468;2023-12-28T13:23:24;10.07;;;6.57;;
142;SDS011;63667;49.046;8.468;2023-12-28T13:25:50;14.10;;;7.87;;
142;SDS011;63667;49.046;8.468;2023-12-28T13:28:17;12.03;;;7.33;;
142;SDS011;63667;49.046;8.468;2023-12-28T13:30:43;13.97;;;6.50;;
142;SDS011;63667;49.046;8.468;2023-12-28T13:33:10;14.83;;;7.00;;
142;SDS011;63667;49.046;8.468;2023-12-28T13:35:37;13.07;;;7.50;;
142;SDS011;63667;49.046;8.468;2023-12-28T13:38:03;13.40;;;7.27;;
142;SDS011;63667;49.046;8.468;2023-12-28T13:40:30;12.13;;;6.90;;
142;SDS011;63667;49.046;8.468;2023-12-28T13:42:56;11.80;;;7.60;;
142;SDS011;63667;49.046;8.468;2023-12-28T13:45:23;10.17;;;6.40;;
142;SDS011;63667;49.046;8.468;2023-12-28T13:47:49;15.70;;;7.03;;
142;SDS011;63667;49.046;8.468;2023-12-28T13:50:16;14.63;;;6.93;;
142;SDS011;63667;49.046;8.468;2023-12-28T13:52:42;12.27;;;7.00;;
142;SDS011;63667;49.046;8.468;2023-12-28T13:55:08;13.93;;;7.77;;
142;SDS011;63667;49.046;8.468;2023-12-28T13:57:35;9.83;;;6.83;;
142;SDS011;63667;49.046;8.468;2023-12-28T14:00:01;10.63;;;6.60;;
142;SDS011;63667;49.046;8.468;2023-12-28T14:02:28;12.80;;;6.70;;
142;SDS011;63667;49.046;8.468;2023-12-28T14:04:55;16.53;;;6.97;;
142;SDS011;63667;49.046;8.468;2023-12-28T14:07:22;10.70;;;6.70;;
142;SDS011;63667;49.046;8.468;2023-12-28T14:09:48;12.60;;;6.60;;
142;SDS011;63667;49.046;8.468;2023-12-28T14:12:15;8.73;;;6.17;;
142;SDS011;63667;49.046;8.468;2023-12-28T14:14:41;21.87;;;6.93;;
142;SDS011;63667;49.046;8.468;2023-12-28T14:17:08;11.60;;;6.60;;
142;SDS011;63667;49.046;8.468;2023-12-28T14:19:34;9.67;;;6.03;;
142;SDS011;63667;49.046;8.468;2023-12-28T14:22:01;12.80;;;7.40;;
142;SDS011;63667;49.046;8.468;2023-12-28T14:24:27;13.13;;;7.53;;
142;SDS011;63667;49.046;8.468;2023-12-28T14:26:54;14.83;;;6.50;;
142;SDS011;63667;49.046;8.468;2023-12-28T14:29:21;12.53;;;6.37;;
142;SDS011;63667;49.046;8.468;2023-12-28T14:31:47;15.00;;;6.83;;
142;SDS011;63667;49.046;8.468;2023-12-28T14:34:14;10.67;;;7.07;;
142;SDS011;63667;49.046;8.468;2023-12-28T14:36:41;13.10;;;6.97;;
142;SDS011;63667;49.046;8.468;2023-12-28T14:39:08;12.40;;;8.23;;
142;SDS011;63667;49.046;8.468;2023-12-28T14:41:34;14.50;;;7.67;;
142;SDS011;63667;49.046;8.468;2023-12-28T14:44:01;12.70;;;7.67;;
142;SDS011;63667;49.046;8.468;2023-12-28T14:46:27;14.10;;;7.53;;
142;SDS011;63667;49.046;8.468;2023-12-28T14:48:54;14.07;;;7.90;;
142;SDS011;63667;49.046;8.468;2023-12-28T14:51:21;13.50;;;7.57;;
142;SDS011;63667;49.046;8.468;2023-12-28T14:53:48;10.33;;;6.63;;
142;SDS011;63667;49.046;8.468;2023-12-28T14:56:15;11.73;;;7.20;;
142;SDS011;63667;49.046;8.468;2023-12-28T14:58:42;12.80;;;7.03;;